Terminal Aerodrome Forecast
Issued by NWS

Home | Current Version | Previous Version | Text Only | Print | Product List | Glossary On
Versions: 1 2 3 4 5 6 7 8 9 10 11 12 13 14 15 16 17 18 19 20 21 22 23 24 25 26 27 28 29 30 31 32 33 34 35 36 37 38 39 40 41 42 43 44 45 46
000
FTAK31 PANC 021256 AAA
TAFAAQ
TAF AMD
PAAQ 021256Z 0213/0312 VRB04KT P6SM SKC
      TEMPO 0213/0215 VRB05KT 3SM BR BKN003
     FM022000 10006KT P6SM FEW004 BKN150
     FM030300 12008G16KT P6SM SCT060 BKN080=

USA.gov is the U.S. government's official web portal to all federal, state and local government web resources and services.